sensor_id;sensor_type;location;lat;lon;timestamp;temperature;humidity
12276;DHT22;6200;48.144;11.424;2023-05-29T00:02:06;12.60;96.30
12276;DHT22;6200;48.144;11.424;2023-05-29T00:04:32;12.50;96.50
12276;DHT22;6200;48.144;11.424;2023-05-29T00:06:58;12.50;96.30
12276;DHT22;6200;48.144;11.424;2023-05-29T00:09:23;12.50;96.50
12276;DHT22;6200;48.144;11.424;2023-05-29T00:11:49;12.50;96.60
12276;DHT22;6200;48.144;11.424;2023-05-29T00:14:18;12.50;96.70
12276;DHT22;6200;48.144;11.424;2023-05-29T00:16:48;12.50;97.00
12276;DHT22;6200;48.144;11.424;2023-05-29T00:19:14;12.40;96.90
12276;DHT22;6200;48.144;11.424;2023-05-29T00:21:42;12.40;97.40
12276;DHT22;6200;48.144;11.424;2023-05-29T00:24:08;12.30;97.30
12276;DHT22;6200;48.144;11.424;2023-05-29T00:26:34;12.30;97.50
12276;DHT22;6200;48.144;11.424;2023-05-29T00:28:59;12.30;97.70
12276;DHT22;6200;48.144;11.424;2023-05-29T00:31:25;12.20;97.80
12276;DHT22;6200;48.144;11.424;2023-05-29T00:33:50;12.20;98.20
12276;DHT22;6200;48.144;11.424;2023-05-29T00:36:16;12.20;98.40
12276;DHT22;6200;48.144;11.424;2023-05-29T00:38:42;12.20;98.80
12276;DHT22;6200;48.144;11.424;2023-05-29T00:41:08;12.20;99.30
12276;DHT22;6200;48.144;11.424;2023-05-29T00:43:37;12.10;99.40
12276;DHT22;6200;48.144;11.424;2023-05-29T00:46:03;12.10;99.50
12276;DHT22;6200;48.144;11.424;2023-05-29T00:48:29;12.00;99.60
12276;DHT22;6200;48.144;11.424;2023-05-29T00:50:54;12.00;99.80
12276;DHT22;6200;48.144;11.424;2023-05-29T00:53:21;12.00;99.90
12276;DHT22;6200;48.144;11.424;2023-05-29T00:55:48;11.90;99.90
12276;DHT22;6200;48.144;11.424;2023-05-29T00:58:14;11.90;99.90
12276;DHT22;6200;48.144;11.424;2023-05-29T01:00:40;11.90;99.90
12276;DHT22;6200;48.144;11.424;2023-05-29T01:03:06;11.90;99.90
12276;DHT22;6200;48.144;11.424;2023-05-29T01:05:34;11.90;99.90
12276;DHT22;6200;48.144;11.424;2023-05-29T01:08:01;11.80;99.90
12276;DHT22;6200;48.144;11.424;2023-05-29T01:10:27;11.80;99.90
12276;DHT22;6200;48.144;11.424;2023-05-29T01:15:41;11.80;99.90
12276;DHT22;6200;48.144;11.424;2023-05-29T01:18:37;11.80;99.90
12276;DHT22;6200;48.144;11.424;2023-05-29T01:21:27;11.70;99.90
12276;DHT22;6200;48.144;11.424;2023-05-29T01:26:58;11.60;99.90
12276;DHT22;6200;48.144;11.424;2023-05-29T01:29:28;11.60;99.90
12276;DHT22;6200;48.144;11.424;2023-05-29T01:31:56;11.60;99.90
12276;DHT22;6200;48.144;11.424;2023-05-29T01:34:22;11.50;99.90
12276;DHT22;6200;48.144;11.424;2023-05-29T01:36:47;11.60;99.90
12276;DHT22;6200;48.144;11.424;2023-05-29T01:39:13;11.60;99.90
12276;DHT22;6200;48.144;11.424;2023-05-29T01:41:40;11.60;99.90
12276;DHT22;6200;48.144;11.424;2023-05-29T01:44:07;11.50;99.90
12276;DHT22;6200;48.144;11.424;2023-05-29T01:46:35;11.40;99.90
12276;DHT22;6200;48.144;11.424;2023-05-29T01:49:01;11.40;99.90
12276;DHT22;6200;48.144;11.424;2023-05-29T01:51:27;11.40;99.90
12276;DHT22;6200;48.144;11.424;2023-05-29T01:53:52;11.40;99.90
12276;DHT22;6200;48.144;11.424;2023-05-29T01:56:18;11.40;99.90
12276;DHT22;6200;48.144;11.424;2023-05-29T01:58:44;11.40;99.90
12276;DHT22;6200;48.144;11.424;2023-05-29T02:01:11;11.30;99.90
12276;DHT22;6200;48.144;11.424;2023-05-29T02:03:36;11.30;99.90
12276;DHT22;6200;48.144;11.424;2023-05-29T02:06:02;11.20;99.90
12276;DHT22;6200;48.144;11.424;2023-05-29T02:08:28;11.20;99.90
12276;DHT22;6200;48.144;11.424;2023-05-29T02:10:54;11.20;99.90
12276;DHT22;6200;48.144;11.424;2023-05-29T02:13:20;11.20;99.90
12276;DHT22;6200;48.144;11.424;2023-05-29T02:15:46;11.10;99.90
12276;DHT22;6200;48.144;11.424;2023-05-29T02:18:13;11.10;99.90
12276;DHT22;6200;48.144;11.424;2023-05-29T02:20:40;11.00;99.90
12276;DHT22;6200;48.144;11.424;2023-05-29T02:23:05;11.00;99.90
12276;DHT22;6200;48.144;11.424;2023-05-29T02:25:31;11.00;99.90
12276;DHT22;6200;48.144;11.424;2023-05-29T02:27:56;10.90;99.90
12276;DHT22;6200;48.144;11.424;2023-05-29T02:30:22;11.00;99.90
12276;DHT22;6200;48.144;11.424;2023-05-29T02:32:47;11.00;99.90
12276;DHT22;6200;48.144;11.424;2023-05-29T02:35:13;10.90;99.90
12276;DHT22;6200;48.144;11.424;2023-05-29T02:37:40;10.90;99.90
12276;DHT22;6200;48.144;11.424;2023-05-29T02:40:06;10.90;99.90
12276;DHT22;6200;48.144;11.424;2023-05-29T02:42:33;10.90;99.90
12276;DHT22;6200;48.144;11.424;2023-05-29T02:44:59;10.80;99.90
12276;DHT22;6200;48.144;11.424;2023-05-29T02:47:24;10.80;99.90
12276;DHT22;6200;48.144;11.424;2023-05-29T02:49:50;10.80;99.90
12276;DHT22;6200;48.144;11.424;2023-05-29T02:52:15;10.80;99.90
12276;DHT22;6200;48.144;11.424;2023-05-29T02:54:41;10.70;99.90
12276;DHT22;6200;48.144;11.424;2023-05-29T02:57:06;10.70;99.90
12276;DHT22;6200;48.144;11.424;2023-05-29T02:59:32;10.70;99.90
12276;DHT22;6200;48.144;11.424;2023-05-29T03:01:58;10.70;99.90
12276;DHT22;6200;48.144;11.424;2023-05-29T03:04:23;10.70;99.90
12276;DHT22;6200;48.144;11.424;2023-05-29T03:06:48;10.60;99.90
12276;DHT22;6200;48.144;11.424;2023-05-29T03:09:14;10.60;99.90
12276;DHT22;6200;48.144;11.424;2023-05-29T03:11:42;10.50;99.90
12276;DHT22;6200;48.144;11.424;2023-05-29T03:14:08;10.50;99.90
12276;DHT22;6200;48.144;11.424;2023-05-29T03:16:34;10.50;99.90
12276;DHT22;6200;48.144;11.424;2023-05-29T03:19:01;10.50;99.90
12276;DHT22;6200;48.144;11.424;2023-05-29T03:21:27;10.50;99.90
12276;DHT22;6200;48.144;11.424;2023-05-29T03:23:52;10.40;99.90
12276;DHT22;6200;48.144;11.424;2023-05-29T03:26:18;10.40;99.90
12276;DHT22;6200;48.144;11.424;2023-05-29T03:28:43;10.40;99.90
12276;DHT22;6200;48.144;11.424;2023-05-29T03:31:09;10.40;99.90
12276;DHT22;6200;48.144;11.424;2023-05-29T03:33:35;10.40;99.90
12276;DHT22;6200;48.144;11.424;2023-05-29T03:36:01;10.30;99.90
12276;DHT22;6200;48.144;11.424;2023-05-29T03:38:27;10.30;99.90
12276;DHT22;6200;48.144;11.424;2023-05-29T03:40:53;10.30;99.90
12276;DHT22;6200;48.144;11.424;2023-05-29T03:43:19;10.30;99.90
12276;DHT22;6200;48.144;11.424;2023-05-29T03:45:45;10.30;99.90
12276;DHT22;6200;48.144;11.424;2023-05-29T03:48:10;10.40;99.90
12276;DHT22;6200;48.144;11.424;2023-05-29T03:50:36;10.40;99.90
12276;DHT22;6200;48.144;11.424;2023-05-29T03:53:01;10.30;99.90
12276;DHT22;6200;48.144;11.424;2023-05-29T03:55:27;10.30;99.90
12276;DHT22;6200;48.144;11.424;2023-05-29T03:57:53;10.30;99.90
12276;DHT22;6200;48.144;11.424;2023-05-29T04:00:19;10.30;99.90
12276;DHT22;6200;48.144;11.424;2023-05-29T04:02:44;10.30;99.90
12276;DHT22;6200;48.144;11.424;2023-05-29T04:05:10;10.30;99.90
12276;DHT22;6200;48.144;11.424;2023-05-29T04:07:38;10.30;99.90
12276;DHT22;6200;48.144;11.424;2023-05-29T04:10:07;10.40;99.90
12276;DHT22;6200;48.144;11.424;2023-05-29T04:12:33;10.40;99.90
12276;DHT22;6200;48.144;11.424;2023-05-29T04:14:59;10.40;99.90
12276;DHT22;6200;48.144;11.424;2023-05-29T04:17:24;10.30;99.90
12276;DHT22;6200;48.144;11.424;2023-05-29T04:19:50;10.40;99.90
12276;DHT22;6200;48.144;11.424;2023-05-29T04:22:16;10.40;99.90
12276;DHT22;6200;48.144;11.424;2023-05-29T04:24:42;10.40;99.90
12276;DHT22;6200;48.144;11.424;2023-05-29T04:27:08;10.40;99.90
12276;DHT22;6200;48.144;11.424;2023-05-29T04:29:34;10.40;99.90
12276;DHT22;6200;48.144;11.424;2023-05-29T04:32:00;10.40;99.90
12276;DHT22;6200;48.144;11.424;2023-05-29T04:34:28;10.50;99.90
12276;DHT22;6200;48.144;11.424;2023-05-29T04:36:56;10.60;99.90
12276;DHT22;6200;48.144;11.424;2023-05-29T04:39:23;10.60;99.90
12276;DHT22;6200;48.144;11.424;2023-05-29T04:41:50;10.60;99.90
12276;DHT22;6200;48.144;11.424;2023-05-29T04:44:16;10.60;99.90
12276;DHT22;6200;48.144;11.424;2023-05-29T04:46:42;10.70;99.90
12276;DHT22;6200;48.144;11.424;2023-05-29T04:49:10;10.80;99.90
12276;DHT22;6200;48.144;11.424;2023-05-29T04:51:35;10.80;99.90
12276;DHT22;6200;48.144;11.424;2023-05-29T04:54:01;10.80;99.90
12276;DHT22;6200;48.144;11.424;2023-05-29T04:56:27;10.90;99.90
12276;DHT22;6200;48.144;11.424;2023-05-29T04:58:53;10.90;99.90
12276;DHT22;6200;48.144;11.424;2023-05-29T05:01:19;11.00;99.90
12276;DHT22;6200;48.144;11.424;2023-05-29T05:03:44;11.10;99.90
12276;DHT22;6200;48.144;11.424;2023-05-29T05:06:11;11.10;99.90
12276;DHT22;6200;48.144;11.424;2023-05-29T05:08:38;11.20;99.90
12276;DHT22;6200;48.144;11.424;2023-05-29T05:11:04;11.20;99.90
12276;DHT22;6200;48.144;11.424;2023-05-29T05:13:31;11.30;99.90
12276;DHT22;6200;48.144;11.424;2023-05-29T05:15:57;11.30;99.90
12276;DHT22;6200;48.144;11.424;2023-05-29T05:18:22;11.40;99.90
12276;DHT22;6200;48.144;11.424;2023-05-29T05:20:48;11.50;99.90
12276;DHT22;6200;48.144;11.424;2023-05-29T05:23:15;11.60;99.90
12276;DHT22;6200;48.144;11.424;2023-05-29T05:25:40;11.60;99.90
12276;DHT22;6200;48.144;11.424;2023-05-29T05:28:06;11.70;99.90
12276;DHT22;6200;48.144;11.424;2023-05-29T05:30:31;11.80;99.90
12276;DHT22;6200;48.144;11.424;2023-05-29T05:32:57;11.90;99.90
12276;DHT22;6200;48.144;11.424;2023-05-29T05:35:24;12.10;99.90
12276;DHT22;6200;48.144;11.424;2023-05-29T05:37:49;12.20;99.90
12276;DHT22;6200;48.144;11.424;2023-05-29T05:40:15;12.40;99.90
12276;DHT22;6200;48.144;11.424;2023-05-29T05:42:41;12.70;99.90
12276;DHT22;6200;48.144;11.424;2023-05-29T05:45:07;13.10;99.90
12276;DHT22;6200;48.144;11.424;2023-05-29T05:47:33;13.50;99.90
12276;DHT22;6200;48.144;11.424;2023-05-29T05:49:59;13.60;99.90
12276;DHT22;6200;48.144;11.424;2023-05-29T05:52:24;13.90;99.90
12276;DHT22;6200;48.144;11.424;2023-05-29T05:54:51;14.10;99.90
12276;DHT22;6200;48.144;11.424;2023-05-29T05:57:16;14.20;99.90
12276;DHT22;6200;48.144;11.424;2023-05-29T05:59:42;14.40;99.90
12276;DHT22;6200;48.144;11.424;2023-05-29T06:02:07;14.50;99.90
12276;DHT22;6200;48.144;11.424;2023-05-29T06:04:33;14.70;99.90
12276;DHT22;6200;48.144;11.424;2023-05-29T06:06:58;14.90;99.90
12276;DHT22;6200;48.144;11.424;2023-05-29T06:09:24;15.10;99.90
12276;DHT22;6200;48.144;11.424;2023-05-29T06:11:51;15.30;99.90
12276;DHT22;6200;48.144;11.424;2023-05-29T06:14:17;15.70;99.90
12276;DHT22;6200;48.144;11.424;2023-05-29T06:16:43;16.20;99.70
12276;DHT22;6200;48.144;11.424;2023-05-29T06:19:08;16.70;99.70
12276;DHT22;6200;48.144;11.424;2023-05-29T06:21:34;17.30;98.10
12276;DHT22;6200;48.144;11.424;2023-05-29T06:23:59;17.90;95.80
12276;DHT22;6200;48.144;11.424;2023-05-29T06:26:25;18.70;94.70
12276;DHT22;6200;48.144;11.424;2023-05-29T06:28:52;19.60;92.80
12276;DHT22;6200;48.144;11.424;2023-05-29T06:31:17;20.20;90.70
12276;DHT22;6200;48.144;11.424;2023-05-29T06:33:44;20.90;90.20
12276;DHT22;6200;48.144;11.424;2023-05-29T06:36:09;21.60;86.90
12276;DHT22;6200;48.144;11.424;2023-05-29T06:38:36;22.20;84.60
12276;DHT22;6200;48.144;11.424;2023-05-29T06:41:01;22.60;82.90
12276;DHT22;6200;48.144;11.424;2023-05-29T06:43:27;23.10;78.80
12276;DHT22;6200;48.144;11.424;2023-05-29T06:45:53;23.50;77.00
12276;DHT22;6200;48.144;11.424;2023-05-29T06:48:19;24.00;75.70
12276;DHT22;6200;48.144;11.424;2023-05-29T06:50:44;24.40;77.50
12276;DHT22;6200;48.144;11.424;2023-05-29T06:53:10;24.80;75.30
12276;DHT22;6200;48.144;11.424;2023-05-29T06:55:35;25.00;72.40
12276;DHT22;6200;48.144;11.424;2023-05-29T06:58:01;25.30;71.00
12276;DHT22;6200;48.144;11.424;2023-05-29T07:00:26;25.40;69.10
12276;DHT22;6200;48.144;11.424;2023-05-29T07:02:53;25.80;69.80
12276;DHT22;6200;48.144;11.424;2023-05-29T07:05:18;25.70;68.10
12276;DHT22;6200;48.144;11.424;2023-05-29T07:07:44;26.30;65.80
12276;DHT22;6200;48.144;11.424;2023-05-29T07:10:10;26.20;65.20
12276;DHT22;6200;48.144;11.424;2023-05-29T07:12:35;26.30;64.80
12276;DHT22;6200;48.144;11.424;2023-05-29T07:15:01;26.70;64.10
12276;DHT22;6200;48.144;11.424;2023-05-29T07:17:26;26.80;63.50
12276;DHT22;6200;48.144;11.424;2023-05-29T07:19:52;27.00;62.20
12276;DHT22;6200;48.144;11.424;2023-05-29T07:22:19;26.90;61.20
12276;DHT22;6200;48.144;11.424;2023-05-29T07:24:45;26.80;60.00
12276;DHT22;6200;48.144;11.424;2023-05-29T07:27:11;27.00;61.00
12276;DHT22;6200;48.144;11.424;2023-05-29T07:29:36;26.80;62.30
12276;DHT22;6200;48.144;11.424;2023-05-29T07:32:02;26.70;61.40
12276;DHT22;6200;48.144;11.424;2023-05-29T07:34:27;26.30;61.20
12276;DHT22;6200;48.144;11.424;2023-05-29T07:37:06;25.80;62.80
12276;DHT22;6200;48.144;11.424;2023-05-29T07:39:33;25.40;65.20
12276;DHT22;6200;48.144;11.424;2023-05-29T07:42:02;25.00;65.00
12276;DHT22;6200;48.144;11.424;2023-05-29T07:44:28;24.90;66.00
12276;DHT22;6200;48.144;11.424;2023-05-29T07:46:54;24.80;66.40
12276;DHT22;6200;48.144;11.424;2023-05-29T07:49:20;25.00;65.90
12276;DHT22;6200;48.144;11.424;2023-05-29T07:51:45;25.00;65.10
12276;DHT22;6200;48.144;11.424;2023-05-29T07:54:11;25.00;64.50
12276;DHT22;6200;48.144;11.424;2023-05-29T07:56:37;24.60;67.00
12276;DHT22;6200;48.144;11.424;2023-05-29T07:59:04;24.60;67.90
12276;DHT22;6200;48.144;11.424;2023-05-29T08:01:29;24.70;67.10
12276;DHT22;6200;48.144;11.424;2023-05-29T08:03:55;24.60;68.10
12276;DHT22;6200;48.144;11.424;2023-05-29T08:06:21;24.50;68.40
12276;DHT22;6200;48.144;11.424;2023-05-29T08:08:46;24.40;67.60
12276;DHT22;6200;48.144;11.424;2023-05-29T08:11:12;24.30;67.70
12276;DHT22;6200;48.144;11.424;2023-05-29T08:13:38;24.40;66.70
12276;DHT22;6200;48.144;11.424;2023-05-29T08:16:03;24.20;68.70
12276;DHT22;6200;48.144;11.424;2023-05-29T08:18:31;24.30;68.50
12276;DHT22;6200;48.144;11.424;2023-05-29T08:20:56;24.40;69.30
12276;DHT22;6200;48.144;11.424;2023-05-29T08:23:22;24.40;68.10
12276;DHT22;6200;48.144;11.424;2023-05-29T08:25:48;24.40;69.50
12276;DHT22;6200;48.144;11.424;2023-05-29T08:28:14;24.40;69.10
12276;DHT22;6200;48.144;11.424;2023-05-29T08:30:40;24.60;68.90
12276;DHT22;6200;48.144;11.424;2023-05-29T08:33:05;24.40;69.40
12276;DHT22;6200;48.144;11.424;2023-05-29T08:35:32;24.50;69.60
12276;DHT22;6200;48.144;11.424;2023-05-29T08:37:58;24.40;71.30
12276;DHT22;6200;48.144;11.424;2023-05-29T08:40:23;24.40;68.60
12276;DHT22;6200;48.144;11.424;2023-05-29T08:43:04;24.40;69.50
12276;DHT22;6200;48.144;11.424;2023-05-29T08:45:33;24.40;71.00
12276;DHT22;6200;48.144;11.424;2023-05-29T08:48:00;24.40;71.80
12276;DHT22;6200;48.144;11.424;2023-05-29T08:50:26;24.60;71.10
12276;DHT22;6200;48.144;11.424;2023-05-29T08:52:52;24.60;68.10
12276;DHT22;6200;48.144;11.424;2023-05-29T08:55:18;24.60;68.60
12276;DHT22;6200;48.144;11.424;2023-05-29T08:57:43;24.70;70.10
12276;DHT22;6200;48.144;11.424;2023-05-29T09:00:11;24.90;69.40
12276;DHT22;6200;48.144;11.424;2023-05-29T09:02:41;25.00;69.40
12276;DHT22;6200;48.144;11.424;2023-05-29T09:05:09;25.00;67.90
12276;DHT22;6200;48.144;11.424;2023-05-29T09:07:36;25.00;71.40
12276;DHT22;6200;48.144;11.424;2023-05-29T09:10:13;25.20;68.80
12276;DHT22;6200;48.144;11.424;2023-05-29T09:12:40;25.20;69.30
12276;DHT22;6200;48.144;11.424;2023-05-29T09:15:23;25.30;70.10
12276;DHT22;6200;48.144;11.424;2023-05-29T09:17:54;25.50;66.20
12276;DHT22;6200;48.144;11.424;2023-05-29T09:20:21;25.40;68.90
12276;DHT22;6200;48.144;11.424;2023-05-29T09:22:56;25.40;68.00
12276;DHT22;6200;48.144;11.424;2023-05-29T09:25:26;25.50;67.30
12276;DHT22;6200;48.144;11.424;2023-05-29T09:27:57;25.70;65.90
12276;DHT22;6200;48.144;11.424;2023-05-29T09:33:05;26.00;65.40
12276;DHT22;6200;48.144;11.424;2023-05-29T09:35:42;26.10;66.40
12276;DHT22;6200;48.144;11.424;2023-05-29T09:38:10;26.10;63.40
12276;DHT22;6200;48.144;11.424;2023-05-29T09:40:37;26.20;62.40
12276;DHT22;6200;48.144;11.424;2023-05-29T09:43:05;26.30;63.20
12276;DHT22;6200;48.144;11.424;2023-05-29T09:45:33;26.20;61.70
12276;DHT22;6200;48.144;11.424;2023-05-29T09:47:58;26.50;61.90
12276;DHT22;6200;48.144;11.424;2023-05-29T09:50:27;26.50;61.20
12276;DHT22;6200;48.144;11.424;2023-05-29T09:52:56;26.60;62.50
12276;DHT22;6200;48.144;11.424;2023-05-29T09:55:23;26.70;63.20
12276;DHT22;6200;48.144;11.424;2023-05-29T09:57:53;26.70;62.40
12276;DHT22;6200;48.144;11.424;2023-05-29T10:00:19;26.80;59.50
12276;DHT22;6200;48.144;11.424;2023-05-29T10:02:45;26.80;59.90
12276;DHT22;6200;48.144;11.424;2023-05-29T10:05:11;26.90;59.50
12276;DHT22;6200;48.144;11.424;2023-05-29T10:07:49;27.10;61.60
12276;DHT22;6200;48.144;11.424;2023-05-29T10:10:17;27.10;58.70
12276;DHT22;6200;48.144;11.424;2023-05-29T10:12:49;27.30;58.60
12276;DHT22;6200;48.144;11.424;2023-05-29T10:15:16;27.30;57.00
12276;DHT22;6200;48.144;11.424;2023-05-29T10:18:21;27.50;58.60
12276;DHT22;6200;48.144;11.424;2023-05-29T10:20:50;27.50;60.80
12276;DHT22;6200;48.144;11.424;2023-05-29T10:23:20;27.50;57.40
12276;DHT22;6200;48.144;11.424;2023-05-29T10:25:47;27.50;59.40
12276;DHT22;6200;48.144;11.424;2023-05-29T10:28:15;27.60;55.70
12276;DHT22;6200;48.144;11.424;2023-05-29T10:30:50;27.60;55.40
12276;DHT22;6200;48.144;11.424;2023-05-29T10:35:55;27.80;54.50
12276;DHT22;6200;48.144;11.424;2023-05-29T10:38:26;27.90;56.80
12276;DHT22;6200;48.144;11.424;2023-05-29T10:40:52;27.90;56.90
12276;DHT22;6200;48.144;11.424;2023-05-29T10:43:44;27.80;53.10
12276;DHT22;6200;48.144;11.424;2023-05-29T10:46:10;27.90;52.20
12276;DHT22;6200;48.144;11.424;2023-05-29T10:48:36;27.90;53.20
12276;DHT22;6200;48.144;11.424;2023-05-29T10:51:05;28.10;55.10
12276;DHT22;6200;48.144;11.424;2023-05-29T10:53:32;28.20;53.90
12276;DHT22;6200;48.144;11.424;2023-05-29T10:55:59;28.30;54.00
12276;DHT22;6200;48.144;11.424;2023-05-29T10:58:26;28.40;54.70
12276;DHT22;6200;48.144;11.424;2023-05-29T11:00:53;28.40;53.30
12276;DHT22;6200;48.144;11.424;2023-05-29T11:03:22;28.30;53.20
12276;DHT22;6200;48.144;11.424;2023-05-29T11:06:20;28.30;52.00
12276;DHT22;6200;48.144;11.424;2023-05-29T11:08:57;28.30;52.00
12276;DHT22;6200;48.144;11.424;2023-05-29T11:13:56;28.40;52.70
12276;DHT22;6200;48.144;11.424;2023-05-29T11:18:55;28.70;52.70
12276;DHT22;6200;48.144;11.424;2023-05-29T11:24:07;28.70;50.50
12276;DHT22;6200;48.144;11.424;2023-05-29T11:26:35;28.50;52.40
12276;DHT22;6200;48.144;11.424;2023-05-29T11:29:05;28.60;52.00
12276;DHT22;6200;48.144;11.424;2023-05-29T11:31:33;28.70;52.10
12276;DHT22;6200;48.144;11.424;2023-05-29T11:34:01;28.80;50.50
12276;DHT22;6200;48.144;11.424;2023-05-29T11:36:30;28.80;52.20
12276;DHT22;6200;48.144;11.424;2023-05-29T11:38:56;28.80;48.30
12276;DHT22;6200;48.144;11.424;2023-05-29T11:41:21;28.80;49.60
12276;DHT22;6200;48.144;11.424;2023-05-29T11:43:58;28.80;51.60
12276;DHT22;6200;48.144;11.424;2023-05-29T11:46:24;28.90;50.40
12276;DHT22;6200;48.144;11.424;2023-05-29T11:48:51;29.10;49.90
12276;DHT22;6200;48.144;11.424;2023-05-29T11:51:17;29.10;50.00
12276;DHT22;6200;48.144;11.424;2023-05-29T11:53:43;29.30;50.90
12276;DHT22;6200;48.144;11.424;2023-05-29T11:56:11;29.30;52.20
12276;DHT22;6200;48.144;11.424;2023-05-29T11:58:38;29.40;53.30
12276;DHT22;6200;48.144;11.424;2023-05-29T12:01:04;29.40;52.80
12276;DHT22;6200;48.144;11.424;2023-05-29T12:03:30;29.40;51.50
12276;DHT22;6200;48.144;11.424;2023-05-29T12:05:55;29.30;51.00
12276;DHT22;6200;48.144;11.424;2023-05-29T12:08:22;29.30;53.30
12276;DHT22;6200;48.144;11.424;2023-05-29T12:10:50;29.40;53.90
12276;DHT22;6200;48.144;11.424;2023-05-29T12:13:18;29.40;53.80
12276;DHT22;6200;48.144;11.424;2023-05-29T12:15:44;29.60;50.80
12276;DHT22;6200;48.144;11.424;2023-05-29T12:18:10;29.50;51.40
12276;DHT22;6200;48.144;11.424;2023-05-29T12:20:36;29.60;52.40
12276;DHT22;6200;48.144;11.424;2023-05-29T12:23:02;29.70;52.30
12276;DHT22;6200;48.144;11.424;2023-05-29T12:25:28;29.50;52.40
12276;DHT22;6200;48.144;11.424;2023-05-29T12:27:55;29.50;52.60
12276;DHT22;6200;48.144;11.424;2023-05-29T12:30:23;29.50;50.90
12276;DHT22;6200;48.144;11.424;2023-05-29T12:32:50;29.40;50.60
12276;DHT22;6200;48.144;11.424;2023-05-29T12:35:24;29.50;51.60
12276;DHT22;6200;48.144;11.424;2023-05-29T12:40:28;29.60;52.90
12276;DHT22;6200;48.144;11.424;2023-05-29T12:45:23;29.80;52.30
12276;DHT22;6200;48.144;11.424;2023-05-29T12:47:55;29.80;51.30
12276;DHT22;6200;48.144;11.424;2023-05-29T12:50:28;29.80;51.80
12276;DHT22;6200;48.144;11.424;2023-05-29T12:53:05;29.70;52.10
12276;DHT22;6200;48.144;11.424;2023-05-29T12:55:32;29.80;51.90
12276;DHT22;6200;48.144;11.424;2023-05-29T12:57:59;29.90;52.30
12276;DHT22;6200;48.144;11.424;2023-05-29T13:00:25;30.00;52.00
12276;DHT22;6200;48.144;11.424;2023-05-29T13:02:51;30.00;51.90
12276;DHT22;6200;48.144;11.424;2023-05-29T13:05:17;30.00;51.30
12276;DHT22;6200;48.144;11.424;2023-05-29T13:07:45;29.90;50.20
12276;DHT22;6200;48.144;11.424;2023-05-29T13:10:11;29.90;51.10
12276;DHT22;6200;48.144;11.424;2023-05-29T13:12:37;30.10;50.20
12276;DHT22;6200;48.144;11.424;2023-05-29T13:15:03;30.10;49.40
12276;DHT22;6200;48.144;11.424;2023-05-29T13:17:28;30.20;49.20
12276;DHT22;6200;48.144;11.424;2023-05-29T13:19:54;30.20;49.30
12276;DHT22;6200;48.144;11.424;2023-05-29T13:22:20;30.40;49.40
12276;DHT22;6200;48.144;11.424;2023-05-29T13:24:45;30.60;49.10
12276;DHT22;6200;48.144;11.424;2023-05-29T13:27:11;30.80;49.10
12276;DHT22;6200;48.144;11.424;2023-05-29T13:29:39;30.90;48.10
12276;DHT22;6200;48.144;11.424;2023-05-29T13:32:06;30.90;48.30
12276;DHT22;6200;48.144;11.424;2023-05-29T13:34:32;31.00;48.10
12276;DHT22;6200;48.144;11.424;2023-05-29T13:36:57;30.80;45.80
12276;DHT22;6200;48.144;11.424;2023-05-29T13:39:23;30.90;50.10
12276;DHT22;6200;48.144;11.424;2023-05-29T13:41:50;31.00;47.40
12276;DHT22;6200;48.144;11.424;2023-05-29T13:44:15;31.00;48.90
12276;DHT22;6200;48.144;11.424;2023-05-29T13:46:41;31.10;49.10
12276;DHT22;6200;48.144;11.424;2023-05-29T13:49:07;31.10;50.30
12276;DHT22;6200;48.144;11.424;2023-05-29T13:51:33;31.00;47.70
12276;DHT22;6200;48.144;11.424;2023-05-29T13:53:59;30.90;49.70
12276;DHT22;6200;48.144;11.424;2023-05-29T13:56:24;30.70;49.10
12276;DHT22;6200;48.144;11.424;2023-05-29T13:58:52;30.50;48.80
12276;DHT22;6200;48.144;11.424;2023-05-29T14:01:17;30.20;50.30
12276;DHT22;6200;48.144;11.424;2023-05-29T14:03:45;30.00;50.60
12276;DHT22;6200;48.144;11.424;2023-05-29T14:06:11;29.70;48.30
12276;DHT22;6200;48.144;11.424;2023-05-29T14:08:36;29.40;49.30
12276;DHT22;6200;48.144;11.424;2023-05-29T14:11:02;29.00;50.40
12276;DHT22;6200;48.144;11.424;2023-05-29T14:13:28;28.80;50.40
12276;DHT22;6200;48.144;11.424;2023-05-29T14:15:54;28.40;50.50
12276;DHT22;6200;48.144;11.424;2023-05-29T14:18:21;28.10;51.30
12276;DHT22;6200;48.144;11.424;2023-05-29T14:20:47;28.00;51.90
12276;DHT22;6200;48.144;11.424;2023-05-29T14:23:14;27.80;52.50
12276;DHT22;6200;48.144;11.424;2023-05-29T14:25:41;27.80;52.30
12276;DHT22;6200;48.144;11.424;2023-05-29T14:28:07;27.60;52.40
12276;DHT22;6200;48.144;11.424;2023-05-29T14:30:32;27.40;52.70
12276;DHT22;6200;48.144;11.424;2023-05-29T14:32:58;27.10;53.90
12276;DHT22;6200;48.144;11.424;2023-05-29T14:35:25;27.00;54.00
12276;DHT22;6200;48.144;11.424;2023-05-29T14:37:50;27.00;56.60
12276;DHT22;6200;48.144;11.424;2023-05-29T14:40:16;26.90;54.40
12276;DHT22;6200;48.144;11.424;2023-05-29T14:42:41;26.80;54.20
12276;DHT22;6200;48.144;11.424;2023-05-29T14:45:07;26.60;55.10
12276;DHT22;6200;48.144;11.424;2023-05-29T14:47:33;26.60;55.30
12276;DHT22;6200;48.144;11.424;2023-05-29T14:49:58;26.40;54.50
12276;DHT22;6200;48.144;11.424;2023-05-29T14:52:25;26.40;55.00
12276;DHT22;6200;48.144;11.424;2023-05-29T14:54:51;26.20;55.80
12276;DHT22;6200;48.144;11.424;2023-05-29T14:57:16;28.50;56.50
12276;DHT22;6200;48.144;11.424;2023-05-29T14:59:42;26.10;55.70
12276;DHT22;6200;48.144;11.424;2023-05-29T15:02:07;26.10;56.60
12276;DHT22;6200;48.144;11.424;2023-05-29T15:04:35;26.00;55.40
12276;DHT22;6200;48.144;11.424;2023-05-29T15:07:00;25.90;56.40
12276;DHT22;6200;48.144;11.424;2023-05-29T15:09:26;25.80;56.10
12276;DHT22;6200;48.144;11.424;2023-05-29T15:11:52;25.70;56.40
12276;DHT22;6200;48.144;11.424;2023-05-29T15:14:17;25.60;56.60
12276;DHT22;6200;48.144;11.424;2023-05-29T15:16:43;25.60;56.50
12276;DHT22;6200;48.144;11.424;2023-05-29T15:19:09;25.50;55.20
12276;DHT22;6200;48.144;11.424;2023-05-29T15:21:36;25.40;55.50
12276;DHT22;6200;48.144;11.424;2023-05-29T15:24:02;25.50;55.70
12276;DHT22;6200;48.144;11.424;2023-05-29T15:26:28;25.40;56.10
12276;DHT22;6200;48.144;11.424;2023-05-29T15:28:53;25.30;55.90
12276;DHT22;6200;48.144;11.424;2023-05-29T15:31:20;25.30;56.20
12276;DHT22;6200;48.144;11.424;2023-05-29T15:33:48;25.20;57.20
12276;DHT22;6200;48.144;11.424;2023-05-29T15:36:14;25.30;56.80
12276;DHT22;6200;48.144;11.424;2023-05-29T15:38:41;25.20;57.50
12276;DHT22;6200;48.144;11.424;2023-05-29T15:41:07;25.20;56.90
12276;DHT22;6200;48.144;11.424;2023-05-29T15:43:33;25.10;57.30
12276;DHT22;6200;48.144;11.424;2023-05-29T15:45:58;25.00;57.50
12276;DHT22;6200;48.144;11.424;2023-05-29T15:48:24;25.00;56.50
12276;DHT22;6200;48.144;11.424;2023-05-29T15:50:50;24.90;56.80
12276;DHT22;6200;48.144;11.424;2023-05-29T15:53:15;24.80;56.40